sensor_id;sensor_type;location;lat;lon;timestamp;P1;durP1;ratioP1;P2;durP2;ratioP2
5787;SDS011;2920;48.158;12.254;2024-01-15T00:00:07;11.38;;;5.35;;
5787;SDS011;2920;48.158;12.254;2024-01-15T00:02:33;12.25;;;6.63;;
5787;SDS011;2920;48.158;12.254;2024-01-15T00:04:59;12.55;;;6.28;;
5787;SDS011;2920;48.158;12.254;2024-01-15T00:07:24;16.20;;;6.15;;
5787;SDS011;2920;48.158;12.254;2024-01-15T00:09:49;13.80;;;5.85;;
5787;SDS011;2920;48.158;12.254;2024-01-15T00:12:14;13.50;;;6.85;;
5787;SDS011;2920;48.158;12.254;2024-01-15T00:14:40;14.02;;;6.80;;
5787;SDS011;2920;48.158;12.254;2024-01-15T00:17:05;14.65;;;6.63;;
5787;SDS011;2920;48.158;12.254;2024-01-15T00:19:31;9.63;;;6.18;;
5787;SDS011;2920;48.158;12.254;2024-01-15T00:21:57;13.73;;;8.05;;
5787;SDS011;2920;48.158;12.254;2024-01-15T00:24:22;10.40;;;5.15;;
5787;SDS011;2920;48.158;12.254;2024-01-15T00:26:48;11.07;;;7.25;;
5787;SDS011;2920;48.158;12.254;2024-01-15T00:29:13;9.50;;;5.03;;
5787;SDS011;2920;48.158;12.254;2024-01-15T00:31:38;10.23;;;5.78;;
5787;SDS011;2920;48.158;12.254;2024-01-15T00:34:04;11.35;;;5.40;;
5787;SDS011;2920;48.158;12.254;2024-01-15T00:36:29;12.68;;;5.97;;
5787;SDS011;2920;48.158;12.254;2024-01-15T00:38:54;10.13;;;4.50;;
5787;SDS011;2920;48.158;12.254;2024-01-15T00:41:20;11.05;;;5.22;;
5787;SDS011;2920;48.158;12.254;2024-01-15T00:43:45;10.05;;;5.60;;
5787;SDS011;2920;48.158;12.254;2024-01-15T00:46:11;14.43;;;6.03;;
5787;SDS011;2920;48.158;12.254;2024-01-15T00:48:36;8.40;;;3.95;;
5787;SDS011;2920;48.158;12.254;2024-01-15T00:51:02;9.15;;;5.03;;
5787;SDS011;2920;48.158;12.254;2024-01-15T00:53:28;9.38;;;5.10;;
5787;SDS011;2920;48.158;12.254;2024-01-15T00:55:54;12.38;;;5.43;;
5787;SDS011;2920;48.158;12.254;2024-01-15T00:58:19;8.98;;;4.43;;
5787;SDS011;2920;48.158;12.254;2024-01-15T01:00:44;8.18;;;3.92;;
5787;SDS011;2920;48.158;12.254;2024-01-15T01:03:10;6.40;;;3.95;;
5787;SDS011;2920;48.158;12.254;2024-01-15T01:05:35;6.10;;;2.58;;
5787;SDS011;2920;48.158;12.254;2024-01-15T01:08:00;8.15;;;4.28;;
5787;SDS011;2920;48.158;12.254;2024-01-15T01:10:27;8.13;;;3.47;;
5787;SDS011;2920;48.158;12.254;2024-01-15T01:12:52;7.13;;;3.42;;
5787;SDS011;2920;48.158;12.254;2024-01-15T01:15:18;10.48;;;3.90;;
5787;SDS011;2920;48.158;12.254;2024-01-15T01:17:43;6.22;;;3.47;;
5787;SDS011;2920;48.158;12.254;2024-01-15T01:20:08;6.90;;;3.30;;
5787;SDS011;2920;48.158;12.254;2024-01-15T01:22:35;8.63;;;4.95;;
5787;SDS011;2920;48.158;12.254;2024-01-15T01:25:00;8.73;;;4.35;;
5787;SDS011;2920;48.158;12.254;2024-01-15T01:27:26;13.10;;;5.28;;
5787;SDS011;2920;48.158;12.254;2024-01-15T01:29:51;7.13;;;4.45;;
5787;SDS011;2920;48.158;12.254;2024-01-15T01:32:16;5.85;;;4.25;;
5787;SDS011;2920;48.158;12.254;2024-01-15T01:34:42;6.00;;;3.50;;
5787;SDS011;2920;48.158;12.254;2024-01-15T01:37:08;9.02;;;3.80;;
5787;SDS011;2920;48.158;12.254;2024-01-15T01:39:34;10.23;;;4.75;;
5787;SDS011;2920;48.158;12.254;2024-01-15T01:41:59;12.15;;;5.15;;
5787;SDS011;2920;48.158;12.254;2024-01-15T01:44:24;8.23;;;5.15;;
5787;SDS011;2920;48.158;12.254;2024-01-15T01:46:50;14.27;;;5.53;;
5787;SDS011;2920;48.158;12.254;2024-01-15T01:49:15;12.63;;;4.53;;
5787;SDS011;2920;48.158;12.254;2024-01-15T01:51:40;8.77;;;3.70;;
5787;SDS011;2920;48.158;12.254;2024-01-15T01:54:06;10.15;;;4.20;;
5787;SDS011;2920;48.158;12.254;2024-01-15T01:56:33;11.02;;;4.28;;
5787;SDS011;2920;48.158;12.254;2024-01-15T01:58:58;8.73;;;4.25;;
5787;SDS011;2920;48.158;12.254;2024-01-15T02:01:24;7.18;;;3.40;;
5787;SDS011;2920;48.158;12.254;2024-01-15T02:03:50;5.68;;;3.47;;
5787;SDS011;2920;48.158;12.254;2024-01-15T02:06:15;5.00;;;3.03;;
5787;SDS011;2920;48.158;12.254;2024-01-15T02:08:42;9.93;;;4.20;;
5787;SDS011;2920;48.158;12.254;2024-01-15T02:11:08;5.65;;;2.75;;
5787;SDS011;2920;48.158;12.254;2024-01-15T02:13:33;6.32;;;3.47;;
5787;SDS011;2920;48.158;12.254;2024-01-15T02:15:59;6.40;;;2.83;;
5787;SDS011;2920;48.158;12.254;2024-01-15T02:18:24;3.88;;;2.22;;
5787;SDS011;2920;48.158;12.254;2024-01-15T02:20:49;5.20;;;2.67;;
5787;SDS011;2920;48.158;12.254;2024-01-15T02:23:15;3.30;;;2.15;;
5787;SDS011;2920;48.158;12.254;2024-01-15T02:25:41;3.83;;;1.85;;
5787;SDS011;2920;48.158;12.254;2024-01-15T02:28:09;2.92;;;1.77;;
5787;SDS011;2920;48.158;12.254;2024-01-15T02:30:38;3.38;;;2.30;;
5787;SDS011;2920;48.158;12.254;2024-01-15T02:33:04;2.60;;;1.88;;
5787;SDS011;2920;48.158;12.254;2024-01-15T02:35:30;7.63;;;3.22;;
5787;SDS011;2920;48.158;12.254;2024-01-15T02:37:55;5.00;;;2.65;;
5787;SDS011;2920;48.158;12.254;2024-01-15T02:40:20;3.05;;;1.88;;
5787;SDS011;2920;48.158;12.254;2024-01-15T02:42:46;6.90;;;2.25;;
5787;SDS011;2920;48.158;12.254;2024-01-15T02:45:11;6.38;;;2.55;;
5787;SDS011;2920;48.158;12.254;2024-01-15T02:47:36;6.45;;;3.22;;
5787;SDS011;2920;48.158;12.254;2024-01-15T02:50:02;5.22;;;2.88;;
5787;SDS011;2920;48.158;12.254;2024-01-15T02:52:27;5.88;;;2.58;;
5787;SDS011;2920;48.158;12.254;2024-01-15T02:54:52;7.13;;;2.58;;
5787;SDS011;2920;48.158;12.254;2024-01-15T02:57:18;4.78;;;2.38;;
5787;SDS011;2920;48.158;12.254;2024-01-15T02:59:43;6.57;;;3.35;;
5787;SDS011;2920;48.158;12.254;2024-01-15T03:02:08;4.35;;;2.53;;
5787;SDS011;2920;48.158;12.254;2024-01-15T03:04:34;4.32;;;2.13;;
5787;SDS011;2920;48.158;12.254;2024-01-15T03:06:59;6.30;;;2.47;;
5787;SDS011;2920;48.158;12.254;2024-01-15T03:09:24;5.95;;;2.33;;
5787;SDS011;2920;48.158;12.254;2024-01-15T03:11:50;6.22;;;3.25;;
5787;SDS011;2920;48.158;12.254;2024-01-15T03:14:15;4.00;;;2.22;;
5787;SDS011;2920;48.158;12.254;2024-01-15T03:16:41;5.22;;;2.40;;
5787;SDS011;2920;48.158;12.254;2024-01-15T03:19:06;7.78;;;3.15;;
5787;SDS011;2920;48.158;12.254;2024-01-15T03:21:32;7.53;;;3.60;;
5787;SDS011;2920;48.158;12.254;2024-01-15T03:23:57;6.20;;;3.15;;
5787;SDS011;2920;48.158;12.254;2024-01-15T03:26:22;5.10;;;2.17;;
5787;SDS011;2920;48.158;12.254;2024-01-15T03:28:48;5.05;;;2.80;;
5787;SDS011;2920;48.158;12.254;2024-01-15T03:31:13;4.45;;;2.72;;
5787;SDS011;2920;48.158;12.254;2024-01-15T03:33:38;6.75;;;3.38;;
5787;SDS011;2920;48.158;12.254;2024-01-15T03:36:04;5.57;;;2.65;;
5787;SDS011;2920;48.158;12.254;2024-01-15T03:38:29;11.57;;;4.57;;
5787;SDS011;2920;48.158;12.254;2024-01-15T03:40:54;6.05;;;2.80;;
5787;SDS011;2920;48.158;12.254;2024-01-15T03:43:20;8.57;;;3.78;;
5787;SDS011;2920;48.158;12.254;2024-01-15T03:45:45;4.75;;;2.47;;
5787;SDS011;2920;48.158;12.254;2024-01-15T03:48:10;7.57;;;2.45;;
5787;SDS011;2920;48.158;12.254;2024-01-15T03:50:36;6.32;;;2.67;;
5787;SDS011;2920;48.158;12.254;2024-01-15T03:53:01;5.70;;;2.58;;
5787;SDS011;2920;48.158;12.254;2024-01-15T03:55:26;7.32;;;2.80;;
5787;SDS011;2920;48.158;12.254;2024-01-15T03:57:52;6.72;;;3.70;;
5787;SDS011;2920;48.158;12.254;2024-01-15T04:00:17;5.75;;;3.28;;
5787;SDS011;2920;48.158;12.254;2024-01-15T04:02:43;7.05;;;3.35;;
5787;SDS011;2920;48.158;12.254;2024-01-15T04:05:09;6.45;;;2.67;;
5787;SDS011;2920;48.158;12.254;2024-01-15T04:07:34;8.82;;;3.13;;
5787;SDS011;2920;48.158;12.254;2024-01-15T04:09:59;6.47;;;3.42;;
5787;SDS011;2920;48.158;12.254;2024-01-15T04:12:25;9.88;;;3.40;;
5787;SDS011;2920;48.158;12.254;2024-01-15T04:14:50;8.55;;;3.33;;
5787;SDS011;2920;48.158;12.254;2024-01-15T04:17:15;7.78;;;4.18;;
5787;SDS011;2920;48.158;12.254;2024-01-15T04:19:43;6.30;;;2.88;;
5787;SDS011;2920;48.158;12.254;2024-01-15T04:22:09;6.20;;;3.50;;
5787;SDS011;2920;48.158;12.254;2024-01-15T04:24:34;4.60;;;3.03;;
5787;SDS011;2920;48.158;12.254;2024-01-15T04:26:59;9.32;;;3.25;;
5787;SDS011;2920;48.158;12.254;2024-01-15T04:29:25;8.07;;;3.72;;
5787;SDS011;2920;48.158;12.254;2024-01-15T04:31:50;9.10;;;3.33;;
5787;SDS011;2920;48.158;12.254;2024-01-15T04:34:16;9.63;;;3.25;;
5787;SDS011;2920;48.158;12.254;2024-01-15T04:36:42;7.53;;;3.70;;
5787;SDS011;2920;48.158;12.254;2024-01-15T04:39:07;6.78;;;3.13;;
5787;SDS011;2920;48.158;12.254;2024-01-15T04:41:33;6.15;;;2.75;;
5787;SDS011;2920;48.158;12.254;2024-01-15T04:43:58;8.40;;;4.20;;
5787;SDS011;2920;48.158;12.254;2024-01-15T04:46:25;7.72;;;3.42;;
5787;SDS011;2920;48.158;12.254;2024-01-15T04:48:50;6.00;;;2.95;;
5787;SDS011;2920;48.158;12.254;2024-01-15T04:51:16;6.75;;;3.22;;
5787;SDS011;2920;48.158;12.254;2024-01-15T04:53:41;8.52;;;3.78;;
5787;SDS011;2920;48.158;12.254;2024-01-15T04:56:06;6.45;;;3.92;;
5787;SDS011;2920;48.158;12.254;2024-01-15T04:58:32;4.18;;;2.65;;
5787;SDS011;2920;48.158;12.254;2024-01-15T05:00:57;6.72;;;3.42;;
5787;SDS011;2920;48.158;12.254;2024-01-15T05:03:22;6.10;;;3.10;;
5787;SDS011;2920;48.158;12.254;2024-01-15T05:05:48;8.45;;;4.90;;
5787;SDS011;2920;48.158;12.254;2024-01-15T05:08:13;7.57;;;2.88;;
5787;SDS011;2920;48.158;12.254;2024-01-15T05:10:38;6.70;;;3.35;;
5787;SDS011;2920;48.158;12.254;2024-01-15T05:13:04;6.72;;;3.50;;
5787;SDS011;2920;48.158;12.254;2024-01-15T05:15:29;6.93;;;3.00;;
5787;SDS011;2920;48.158;12.254;2024-01-15T05:17:54;9.52;;;3.65;;
5787;SDS011;2920;48.158;12.254;2024-01-15T05:20:20;6.55;;;3.47;;
5787;SDS011;2920;48.158;12.254;2024-01-15T05:22:45;5.28;;;3.05;;
5787;SDS011;2920;48.158;12.254;2024-01-15T05:25:10;19.65;;;5.72;;
5787;SDS011;2920;48.158;12.254;2024-01-15T05:27:35;4.82;;;2.63;;
5787;SDS011;2920;48.158;12.254;2024-01-15T05:30:01;7.70;;;4.32;;
5787;SDS011;2920;48.158;12.254;2024-01-15T05:32:26;8.18;;;4.32;;
5787;SDS011;2920;48.158;12.254;2024-01-15T05:34:51;5.82;;;3.40;;
5787;SDS011;2920;48.158;12.254;2024-01-15T05:37:17;7.70;;;3.67;;
5787;SDS011;2920;48.158;12.254;2024-01-15T05:39:42;10.07;;;4.50;;
5787;SDS011;2920;48.158;12.254;2024-01-15T05:42:07;8.20;;;4.63;;
5787;SDS011;2920;48.158;12.254;2024-01-15T05:44:33;6.53;;;3.90;;
5787;SDS011;2920;48.158;12.254;2024-01-15T05:46:58;5.65;;;2.90;;
5787;SDS011;2920;48.158;12.254;2024-01-15T05:49:23;5.18;;;3.03;;
5787;SDS011;2920;48.158;12.254;2024-01-15T05:51:48;8.02;;;4.22;;
5787;SDS011;2920;48.158;12.254;2024-01-15T05:54:14;6.30;;;3.10;;
5787;SDS011;2920;48.158;12.254;2024-01-15T05:56:39;6.70;;;3.42;;
5787;SDS011;2920;48.158;12.254;2024-01-15T05:59:05;9.02;;;4.00;;
5787;SDS011;2920;48.158;12.254;2024-01-15T06:01:30;6.32;;;2.47;;
5787;SDS011;2920;48.158;12.254;2024-01-15T06:03:55;7.32;;;3.90;;
5787;SDS011;2920;48.158;12.254;2024-01-15T06:06:20;5.63;;;3.00;;
5787;SDS011;2920;48.158;12.254;2024-01-15T06:08:46;5.80;;;2.95;;
5787;SDS011;2920;48.158;12.254;2024-01-15T06:11:11;6.95;;;2.90;;
5787;SDS011;2920;48.158;12.254;2024-01-15T06:13:36;4.70;;;3.10;;
5787;SDS011;2920;48.158;12.254;2024-01-15T06:16:02;5.50;;;3.75;;
5787;SDS011;2920;48.158;12.254;2024-01-15T06:18:27;8.35;;;4.15;;
5787;SDS011;2920;48.158;12.254;2024-01-15T06:20:53;4.93;;;2.38;;
5787;SDS011;2920;48.158;12.254;2024-01-15T06:23:18;6.53;;;2.50;;
5787;SDS011;2920;48.158;12.254;2024-01-15T06:25:43;6.90;;;3.00;;
5787;SDS011;2920;48.158;12.254;2024-01-15T06:28:08;7.20;;;4.00;;
5787;SDS011;2920;48.158;12.254;2024-01-15T06:30:34;4.45;;;2.90;;
5787;SDS011;2920;48.158;12.254;2024-01-15T06:33:00;5.97;;;3.33;;
5787;SDS011;2920;48.158;12.254;2024-01-15T06:35:25;7.28;;;4.00;;
5787;SDS011;2920;48.158;12.254;2024-01-15T06:37:50;5.07;;;2.92;;
5787;SDS011;2920;48.158;12.254;2024-01-15T06:40:16;6.05;;;2.30;;
5787;SDS011;2920;48.158;12.254;2024-01-15T06:42:41;5.60;;;3.13;;
5787;SDS011;2920;48.158;12.254;2024-01-15T06:45:06;5.72;;;2.97;;
5787;SDS011;2920;48.158;12.254;2024-01-15T06:47:32;7.65;;;3.20;;
5787;SDS011;2920;48.158;12.254;2024-01-15T06:49:57;4.30;;;2.75;;
5787;SDS011;2920;48.158;12.254;2024-01-15T06:52:23;9.15;;;3.47;;
5787;SDS011;2920;48.158;12.254;2024-01-15T06:54:49;6.35;;;3.28;;
5787;SDS011;2920;48.158;12.254;2024-01-15T06:57:14;6.15;;;3.30;;
5787;SDS011;2920;48.158;12.254;2024-01-15T06:59:39;5.60;;;3.13;;
5787;SDS011;2920;48.158;12.254;2024-01-15T07:02:05;7.80;;;3.05;;
5787;SDS011;2920;48.158;12.254;2024-01-15T07:04:31;5.78;;;2.78;;
5787;SDS011;2920;48.158;12.254;2024-01-15T07:06:56;4.35;;;2.38;;
5787;SDS011;2920;48.158;12.254;2024-01-15T07:09:21;4.15;;;2.10;;
5787;SDS011;2920;48.158;12.254;2024-01-15T07:11:47;5.88;;;2.50;;
5787;SDS011;2920;48.158;12.254;2024-01-15T07:14:13;5.30;;;3.33;;
5787;SDS011;2920;48.158;12.254;2024-01-15T07:16:39;5.20;;;3.25;;
5787;SDS011;2920;48.158;12.254;2024-01-15T07:19:04;6.05;;;3.45;;
5787;SDS011;2920;48.158;12.254;2024-01-15T07:21:29;6.25;;;2.83;;
5787;SDS011;2920;48.158;12.254;2024-01-15T07:23:55;7.30;;;2.97;;
5787;SDS011;2920;48.158;12.254;2024-01-15T07:26:20;5.95;;;2.58;;
5787;SDS011;2920;48.158;12.254;2024-01-15T07:28:46;8.85;;;3.35;;
5787;SDS011;2920;48.158;12.254;2024-01-15T07:31:11;6.90;;;3.58;;
5787;SDS011;2920;48.158;12.254;2024-01-15T07:33:37;7.65;;;3.20;;
5787;SDS011;2920;48.158;12.254;2024-01-15T07:36:02;4.22;;;2.40;;
5787;SDS011;2920;48.158;12.254;2024-01-15T07:38:28;4.53;;;3.00;;
5787;SDS011;2920;48.158;12.254;2024-01-15T07:40:53;7.88;;;2.67;;
5787;SDS011;2920;48.158;12.254;2024-01-15T07:43:18;6.25;;;2.92;;
5787;SDS011;2920;48.158;12.254;2024-01-15T07:45:44;6.65;;;3.38;;
5787;SDS011;2920;48.158;12.254;2024-01-15T07:48:10;4.68;;;2.88;;
5787;SDS011;2920;48.158;12.254;2024-01-15T07:50:35;5.47;;;2.80;;
5787;SDS011;2920;48.158;12.254;2024-01-15T07:53:01;8.70;;;4.25;;
5787;SDS011;2920;48.158;12.254;2024-01-15T07:55:26;8.23;;;3.95;;
5787;SDS011;2920;48.158;12.254;2024-01-15T07:57:51;14.20;;;5.15;;
5787;SDS011;2920;48.158;12.254;2024-01-15T08:00:18;6.28;;;3.58;;
5787;SDS011;2920;48.158;12.254;2024-01-15T08:02:44;6.15;;;4.00;;
5787;SDS011;2920;48.158;12.254;2024-01-15T08:05:09;9.60;;;5.05;;
5787;SDS011;2920;48.158;12.254;2024-01-15T08:07:34;6.70;;;4.40;;
5787;SDS011;2920;48.158;12.254;2024-01-15T08:10:00;14.73;;;6.47;;
5787;SDS011;2920;48.158;12.254;2024-01-15T08:12:25;10.65;;;4.63;;
5787;SDS011;2920;48.158;12.254;2024-01-15T08:14:50;7.85;;;4.32;;
5787;SDS011;2920;48.158;12.254;2024-01-15T08:17:15;12.05;;;5.63;;
5787;SDS011;2920;48.158;12.254;2024-01-15T08:19:41;8.65;;;4.00;;
5787;SDS011;2920;48.158;12.254;2024-01-15T08:22:07;10.23;;;4.30;;
5787;SDS011;2920;48.158;12.254;2024-01-15T08:24:32;6.57;;;3.03;;
5787;SDS011;2920;48.158;12.254;2024-01-15T08:26:57;6.32;;;3.28;;
5787;SDS011;2920;48.158;12.254;2024-01-15T08:29:23;5.57;;;2.67;;
5787;SDS011;2920;48.158;12.254;2024-01-15T08:31:49;6.70;;;3.40;;
5787;SDS011;2920;48.158;12.254;2024-01-15T08:34:15;6.60;;;3.22;;
5787;SDS011;2920;48.158;12.254;2024-01-15T08:36:40;6.43;;;2.88;;
5787;SDS011;2920;48.158;12.254;2024-01-15T08:39:05;8.40;;;3.42;;
5787;SDS011;2920;48.158;12.254;2024-01-15T08:41:33;7.78;;;4.47;;
5787;SDS011;2920;48.158;12.254;2024-01-15T08:43:58;8.80;;;2.78;;
5787;SDS011;2920;48.158;12.254;2024-01-15T08:46:23;7.25;;;4.93;;
5787;SDS011;2920;48.158;12.254;2024-01-15T08:48:49;5.90;;;3.33;;
5787;SDS011;2920;48.158;12.254;2024-01-15T08:51:14;7.03;;;3.70;;
5787;SDS011;2920;48.158;12.254;2024-01-15T08:53:40;7.65;;;3.42;;
5787;SDS011;2920;48.158;12.254;2024-01-15T08:56:05;8.68;;;3.28;;
5787;SDS011;2920;48.158;12.254;2024-01-15T08:58:31;6.50;;;2.75;;
5787;SDS011;2920;48.158;12.254;2024-01-15T09:00:56;7.63;;;3.10;;
5787;SDS011;2920;48.158;12.254;2024-01-15T09:03:21;4.22;;;2.53;;
5787;SDS011;2920;48.158;12.254;2024-01-15T09:05:46;5.03;;;3.67;;
5787;SDS011;2920;48.158;12.254;2024-01-15T09:08:13;5.63;;;3.30;;
5787;SDS011;2920;48.158;12.254;2024-01-15T09:10:39;6.55;;;3.67;;
5787;SDS011;2920;48.158;12.254;2024-01-15T09:13:04;6.82;;;2.53;;
5787;SDS011;2920;48.158;12.254;2024-01-15T09:15:29;2.63;;;1.88;;
5787;SDS011;2920;48.158;12.254;2024-01-15T09:17:55;7.50;;;3.05;;
5787;SDS011;2920;48.158;12.254;2024-01-15T09:20:22;5.90;;;3.20;;
5787;SDS011;2920;48.158;12.254;2024-01-15T09:22:48;8.85;;;3.78;;
5787;SDS011;2920;48.158;12.254;2024-01-15T09:25:14;6.07;;;3.40;;
5787;SDS011;2920;48.158;12.254;2024-01-15T09:27:39;6.60;;;2.63;;
5787;SDS011;2920;48.158;12.254;2024-01-15T09:30:04;8.93;;;3.95;;
5787;SDS011;2920;48.158;12.254;2024-01-15T09:32:30;5.82;;;3.55;;
5787;SDS011;2920;48.158;12.254;2024-01-15T09:34:57;11.27;;;3.45;;
5787;SDS011;2920;48.158;12.254;2024-01-15T09:37:23;8.75;;;3.97;;
5787;SDS011;2920;48.158;12.254;2024-01-15T09:39:48;7.78;;;4.57;;
5787;SDS011;2920;48.158;12.254;2024-01-15T09:42:15;11.07;;;4.28;;
5787;SDS011;2920;48.158;12.254;2024-01-15T09:44:40;7.38;;;3.15;;
5787;SDS011;2920;48.158;12.254;2024-01-15T09:47:06;7.15;;;4.50;;
5787;SDS011;2920;48.158;12.254;2024-01-15T09:49:31;8.23;;;3.42;;
5787;SDS011;2920;48.158;12.254;2024-01-15T09:51:57;5.05;;;2.70;;
5787;SDS011;2920;48.158;12.254;2024-01-15T09:54:23;8.98;;;3.22;;
5787;SDS011;2920;48.158;12.254;2024-01-15T09:56:48;6.97;;;3.13;;
5787;SDS011;2920;48.158;12.254;2024-01-15T09:59:17;5.57;;;2.85;;
5787;SDS011;2920;48.158;12.254;2024-01-15T10:01:43;4.35;;;2.58;;
5787;SDS011;2920;48.158;12.254;2024-01-15T10:04:09;7.63;;;3.25;;
5787;SDS011;2920;48.158;12.254;2024-01-15T10:06:35;5.35;;;2.55;;
5787;SDS011;2920;48.158;12.254;2024-01-15T10:09:01;6.20;;;3.08;;
5787;SDS011;2920;48.158;12.254;2024-01-15T10:11:28;5.43;;;3.65;;
5787;SDS011;2920;48.158;12.254;2024-01-15T10:13:53;8.10;;;2.70;;
5787;SDS011;2920;48.158;12.254;2024-01-15T10:16:22;5.88;;;2.90;;
5787;SDS011;2920;48.158;12.254;2024-01-15T10:18:47;4.32;;;2.47;;
5787;SDS011;2920;48.158;12.254;2024-01-15T10:21:13;3.85;;;2.70;;
5787;SDS011;2920;48.158;12.254;2024-01-15T10:23:39;5.93;;;3.25;;
5787;SDS011;2920;48.158;12.254;2024-01-15T10:26:05;9.25;;;3.65;;
5787;SDS011;2920;48.158;12.254;2024-01-15T10:28:30;14.90;;;6.30;;
5787;SDS011;2920;48.158;12.254;2024-01-15T10:30:57;7.82;;;3.60;;
5787;SDS011;2920;48.158;12.254;2024-01-15T10:33:26;9.65;;;3.50;;
5787;SDS011;2920;48.158;12.254;2024-01-15T10:35:59;7.95;;;3.20;;
5787;SDS011;2920;48.158;12.254;2024-01-15T10:38:25;6.72;;;3.42;;
5787;SDS011;2920;48.158;12.254;2024-01-15T10:40:51;7.50;;;3.40;;
5787;SDS011;2920;48.158;12.254;2024-01-15T10:43:18;7.78;;;2.83;;
5787;SDS011;2920;48.158;12.254;2024-01-15T10:45:44;5.75;;;2.33;;
5787;SDS011;2920;48.158;12.254;2024-01-15T10:48:10;5.43;;;2.35;;
5787;SDS011;2920;48.158;12.254;2024-01-15T10:50:35;7.82;;;3.00;;
5787;SDS011;2920;48.158;12.254;2024-01-15T10:53:01;4.82;;;2.63;;
5787;SDS011;2920;48.158;12.254;2024-01-15T10:55:26;9.02;;;2.75;;
5787;SDS011;2920;48.158;12.254;2024-01-15T10:57:52;8.93;;;3.17;;
5787;SDS011;2920;48.158;12.254;2024-01-15T11:00:18;5.55;;;3.10;;
5787;SDS011;2920;48.158;12.254;2024-01-15T11:02:44;5.38;;;2.58;;
5787;SDS011;2920;48.158;12.254;2024-01-15T11:05:09;4.15;;;2.78;;
5787;SDS011;2920;48.158;12.254;2024-01-15T11:07:35;4.93;;;3.03;;
5787;SDS011;2920;48.158;12.254;2024-01-15T11:10:02;4.60;;;2.45;;
5787;SDS011;2920;48.158;12.254;2024-01-15T11:12:28;5.03;;;2.38;;
5787;SDS011;2920;48.158;12.254;2024-01-15T11:15:00;5.35;;;2.90;;
5787;SDS011;2920;48.158;12.254;2024-01-15T11:17:31;5.30;;;2.40;;
5787;SDS011;2920;48.158;12.254;2024-01-15T11:20:24;5.93;;;2.28;;
5787;SDS011;2920;48.158;12.254;2024-01-15T11:22:50;3.10;;;2.00;;
5787;SDS011;2920;48.158;12.254;2024-01-15T11:25:17;5.85;;;2.05;;
5787;SDS011;2920;48.158;12.254;2024-01-15T11:27:44;6.05;;;2.92;;
5787;SDS011;2920;48.158;12.254;2024-01-15T11:30:12;4.35;;;2.60;;
5787;SDS011;2920;48.158;12.254;2024-01-15T11:32:38;6.10;;;2.30;;
5787;SDS011;2920;48.158;12.254;2024-01-15T11:35:07;3.00;;;1.70;;
5787;SDS011;2920;48.158;12.254;2024-01-15T11:40:22;2.78;;;1.95;;
5787;SDS011;2920;48.158;12.254;2024-01-15T11:42:57;5.13;;;2.60;;
5787;SDS011;2920;48.158;12.254;2024-01-15T11:45:23;5.50;;;2.33;;
5787;SDS011;2920;48.158;12.254;2024-01-15T11:50:32;5.00;;;2.40;;
5787;SDS011;2920;48.158;12.254;2024-01-15T11:52:59;3.38;;;2.40;;
5787;SDS011;2920;48.158;12.254;2024-01-15T11:55:27;6.05;;;2.60;;
5787;SDS011;2920;48.158;12.254;2024-01-15T11:57:57;9.30;;;1.52;;
5787;SDS011;2920;48.158;12.254;2024-01-15T12:00:22;3.70;;;2.05;;
5787;SDS011;2920;48.158;12.254;2024-01-15T12:02:48;10.63;;;2.95;;
5787;SDS011;2920;48.158;12.254;2024-01-15T12:05:15;5.30;;;2.30;;
5787;SDS011;2920;48.158;12.254;2024-01-15T12:07:48;2.10;;;1.58;;
5787;SDS011;2920;48.158;12.254;2024-01-15T12:10:17;3.03;;;2.13;;
5787;SDS011;2920;48.158;12.254;2024-01-15T12:13:00;4.55;;;2.20;;
5787;SDS011;2920;48.158;12.254;2024-01-15T12:15:29;3.53;;;2.10;;
5787;SDS011;2920;48.158;12.254;2024-01-15T12:18:01;2.95;;;1.95;;
5787;SDS011;2920;48.158;12.254;2024-01-15T12:20:28;2.35;;;1.42;;
5787;SDS011;2920;48.158;12.254;2024-01-15T12:22:54;2.58;;;1.90;;
5787;SDS011;2920;48.158;12.254;2024-01-15T12:25:20;2.33;;;1.23;;
5787;SDS011;2920;48.158;12.254;2024-01-15T12:27:46;2.70;;;1.38;;
5787;SDS011;2920;48.158;12.254;2024-01-15T12:30:13;4.30;;;1.80;;
5787;SDS011;2920;48.158;12.254;2024-01-15T12:32:39;2.70;;;1.40;;
5787;SDS011;2920;48.158;12.254;2024-01-15T12:35:06;2.58;;;1.20;;
5787;SDS011;2920;48.158;12.254;2024-01-15T12:37:31;2.20;;;1.70;;
5787;SDS011;2920;48.158;12.254;2024-01-15T12:39:58;3.97;;;1.38;;
5787;SDS011;2920;48.158;12.254;2024-01-15T12:42:24;2.63;;;1.67;;
5787;SDS011;2920;48.158;12.254;2024-01-15T12:44:49;2.60;;;1.95;;
5787;SDS011;2920;48.158;12.254;2024-01-15T12:47:14;2.65;;;1.67;;
5787;SDS011;2920;48.158;12.254;2024-01-15T12:49:42;2.15;;;0.93;;
5787;SDS011;2920;48.158;12.254;2024-01-15T12:52:08;4.10;;;2.03;;
5787;SDS011;2920;48.158;12.254;2024-01-15T12:54:34;3.60;;;1.60;;
5787;SDS011;2920;48.158;12.254;2024-01-15T12:56:59;3.08;;;1.50;;
5787;SDS011;2920;48.158;12.254;2024-01-15T12:59:25;4.55;;;1.52;;
5787;SDS011;2920;48.158;12.254;2024-01-15T13:01:50;3.58;;;1.60;;
5787;SDS011;2920;48.158;12.254;2024-01-15T13:04:22;5.30;;;2.03;;
5787;SDS011;2920;48.158;12.254;2024-01-15T13:06:49;3.28;;;1.90;;
5787;SDS011;2920;48.158;12.254;2024-01-15T13:09:14;3.00;;;1.80;;
5787;SDS011;2920;48.158;12.254;2024-01-15T13:11:40;2.92;;;1.23;;
5787;SDS011;2920;48.158;12.254;2024-01-15T13:14:05;3.05;;;1.88;;
5787;SDS011;2920;48.158;12.254;2024-01-15T13:16:30;2.45;;;1.50;;
5787;SDS011;2920;48.158;12.254;2024-01-15T13:18:56;2.58;;;1.55;;
5787;SDS011;2920;48.158;12.254;2024-01-15T13:21:22;3.47;;;1.50;;
5787;SDS011;2920;48.158;12.254;2024-01-15T13:23:47;1.65;;;0.98;;
5787;SDS011;2920;48.158;12.254;2024-01-15T13:26:13;3.05;;;1.70;;
5787;SDS011;2920;48.158;12.254;2024-01-15T13:28:39;3.28;;;1.80;;
5787;SDS011;2920;48.158;12.254;2024-01-15T13:31:04;3.47;;;2.15;;
5787;SDS011;2920;48.158;12.254;2024-01-15T13:33:30;3.92;;;1.45;;
5787;SDS011;2920;48.158;12.254;2024-01-15T13:35:55;7.80;;;2.50;;
5787;SDS011;2920;48.158;12.254;2024-01-15T13:38:20;3.42;;;1.70;;
5787;SDS011;2920;48.158;12.254;2024-01-15T13:40:46;5.65;;;2.75;;
5787;SDS011;2920;48.158;12.254;2024-01-15T13:43:11;1.70;;;1.42;;
5787;SDS011;2920;48.158;12.254;2024-01-15T13:45:39;6.72;;;1.90;;
5787;SDS011;2920;48.158;12.254;2024-01-15T13:48:04;3.33;;;1.50;;
5787;SDS011;2920;48.158;12.254;2024-01-15T13:50:34;2.60;;;1.08;;
5787;SDS011;2920;48.158;12.254;2024-01-15T13:53:01;6.22;;;1.52;;
5787;SDS011;2920;48.158;12.254;2024-01-15T13:55:28;2.47;;;1.30;;
5787;SDS011;2920;48.158;12.254;2024-01-15T13:57:54;3.72;;;1.75;;
5787;SDS011;2920;48.158;12.254;2024-01-15T14:00:19;3.33;;;2.03;;
5787;SDS011;2920;48.158;12.254;2024-01-15T14:02:45;2.67;;;1.80;;
5787;SDS011;2920;48.158;12.254;2024-01-15T14:05:11;3.63;;;1.55;;
5787;SDS011;2920;48.158;12.254;2024-01-15T14:07:37;3.10;;;1.25;;
5787;SDS011;2920;48.158;12.254;2024-01-15T14:10:04;3.58;;;1.27;;
5787;SDS011;2920;48.158;12.254;2024-01-15T14:12:30;2.97;;;1.63;;
5787;SDS011;2920;48.158;12.254;2024-01-15T14:14:56;2.58;;;1.50;;
5787;SDS011;2920;48.158;12.254;2024-01-15T14:17:21;5.85;;;1.52;;
5787;SDS011;2920;48.158;12.254;2024-01-15T14:19:46;3.25;;;1.92;;
5787;SDS011;2920;48.158;12.254;2024-01-15T14:22:12;3.05;;;1.30;;
5787;SDS011;2920;48.158;12.254;2024-01-15T14:24:37;3.88;;;1.75;;
5787;SDS011;2920;48.158;12.254;2024-01-15T14:27:03;3.85;;;1.90;;
5787;SDS011;2920;48.158;12.254;2024-01-15T14:29:30;3.80;;;1.75;;
5787;SDS011;2920;48.158;12.254;2024-01-15T14:31:55;5.40;;;1.90;;
5787;SDS011;2920;48.158;12.254;2024-01-15T14:34:20;3.38;;;1.40;;
5787;SDS011;2920;48.158;12.254;2024-01-15T14:36:48;2.90;;;1.77;;
5787;SDS011;2920;48.158;12.254;2024-01-15T14:39:14;2.67;;;1.70;;
5787;SDS011;2920;48.158;12.254;2024-01-15T14:41:40;5.20;;;2.38;;
5787;SDS011;2920;48.158;12.254;2024-01-15T14:44:05;5.10;;;1.67;;
5787;SDS011;2920;48.158;12.254;2024-01-15T14:46:30;3.17;;;1.70;;
5787;SDS011;2920;48.158;12.254;2024-01-15T14:48:56;3.38;;;2.35;;
5787;SDS011;2920;48.158;12.254;2024-01-15T14:51:21;2.60;;;1.60;;
5787;SDS011;2920;48.158;12.254;2024-01-15T14:53:46;4.00;;;2.13;;
5787;SDS011;2920;48.158;12.254;2024-01-15T14:56:11;5.97;;;3.08;;